Mohammed V International Airport (CMN/GMMN)





Airport Information
Location: Casablanca,
Coordinates: 33.3642 / -7.58167
Field Elevation: 656ft
Longest Runway: 12,228ft
ILS Approaches: YES
Landing Fees: $1,526 per flight
Jet A Price: $0.23/lbs

Current Weather
METAR: GMMN 191200Z 01012KT 350V050 9999 BKN030 22/11 Q1019 NOSIG
TAF: TAF GMMN 191100Z 1912/2018 36010KT 9999 BKN020 TEMPO 1914/1919 36015KT SCT020 BECMG 1920/1922 36006KT BECMG 2010/2012 34010KT 9999 SCT020

Recent Arrivals
Date Flight Type Depart
10/20/2019 CPX755 B738 Liège Airport (EBLG)
Recent Departures
Date Flight Type Arrive
10/31/2019 CPX756 B738 Liège Airport (EBLG)